sensor_id;sensor_type;location;lat;lon;timestamp;temperature;humidity
66740;DHT22;53653;52.188;8.602;2023-03-12T00:01:48;-1.78;89.01
66740;DHT22;53653;52.188;8.602;2023-03-12T00:04:14;-1.81;89.15
66740;DHT22;53653;52.188;8.602;2023-03-12T00:06:39;-1.79;89.23
66740;DHT22;53653;52.188;8.602;2023-03-12T00:09:05;-1.75;89.37
66740;DHT22;53653;52.188;8.602;2023-03-12T00:11:30;-1.73;89.30
66740;DHT22;53653;52.188;8.602;2023-03-12T00:13:57;-1.72;89.43
66740;DHT22;53653;52.188;8.602;2023-03-12T00:16:25;-1.72;89.59
66740;DHT22;53653;52.188;8.602;2023-03-12T00:18:52;-1.69;89.21
66740;DHT22;53653;52.188;8.602;2023-03-12T00:21:18;-1.66;89.04
66740;DHT22;53653;52.188;8.602;2023-03-12T00:23:46;-1.61;88.66
66740;DHT22;53653;52.188;8.602;2023-03-12T00:26:13;-1.55;88.24
66740;DHT22;53653;52.188;8.602;2023-03-12T00:28:39;-1.48;87.89
66740;DHT22;53653;52.188;8.602;2023-03-12T00:31:20;-1.51;87.68
66740;DHT22;53653;52.188;8.602;2023-03-12T00:33:46;-1.50;87.55
66740;DHT22;53653;52.188;8.602;2023-03-12T00:36:15;-1.48;87.67
66740;DHT22;53653;52.188;8.602;2023-03-12T00:38:41;-1.52;87.96
66740;DHT22;53653;52.188;8.602;2023-03-12T00:41:07;-1.52;87.91
66740;DHT22;53653;52.188;8.602;2023-03-12T00:43:32;-1.51;87.81
66740;DHT22;53653;52.188;8.602;2023-03-12T00:45:58;-1.54;88.09
66740;DHT22;53653;52.188;8.602;2023-03-12T00:48:23;-1.54;88.06
66740;DHT22;53653;52.188;8.602;2023-03-12T00:50:49;-1.54;87.91
66740;DHT22;53653;52.188;8.602;2023-03-12T00:53:15;-1.61;88.47
66740;DHT22;53653;52.188;8.602;2023-03-12T00:55:40;-1.63;88.62
66740;DHT22;53653;52.188;8.602;2023-03-12T00:58:06;-1.69;89.10
66740;DHT22;53653;52.188;8.602;2023-03-12T01:00:31;-1.71;89.00
66740;DHT22;53653;52.188;8.602;2023-03-12T01:02:57;-1.72;89.20
66740;DHT22;53653;52.188;8.602;2023-03-12T01:05:22;-1.73;88.79
66740;DHT22;53653;52.188;8.602;2023-03-12T01:07:48;-1.72;88.47
66740;DHT22;53653;52.188;8.602;2023-03-12T01:10:16;-1.73;88.31
66740;DHT22;53653;52.188;8.602;2023-03-12T01:12:44;-1.66;88.26
66740;DHT22;53653;52.188;8.602;2023-03-12T01:15:13;-1.68;88.30
66740;DHT22;53653;52.188;8.602;2023-03-12T01:17:39;-1.65;88.11
66740;DHT22;53653;52.188;8.602;2023-03-12T01:20:05;-1.61;87.86
66740;DHT22;53653;52.188;8.602;2023-03-12T01:22:33;-1.58;87.99
66740;DHT22;53653;52.188;8.602;2023-03-12T01:24:59;-1.55;87.61
66740;DHT22;53653;52.188;8.602;2023-03-12T01:27:24;-1.61;87.73
66740;DHT22;53653;52.188;8.602;2023-03-12T01:29:50;-1.69;88.08
66740;DHT22;53653;52.188;8.602;2023-03-12T01:32:15;-1.71;88.34
66740;DHT22;53653;52.188;8.602;2023-03-12T01:34:42;-1.75;88.70
66740;DHT22;53653;52.188;8.602;2023-03-12T01:37:08;-1.78;88.31
66740;DHT22;53653;52.188;8.602;2023-03-12T01:39:33;-1.78;88.34
66740;DHT22;53653;52.188;8.602;2023-03-12T01:41:59;-1.78;88.43
66740;DHT22;53653;52.188;8.602;2023-03-12T01:44:25;-1.75;88.18
66740;DHT22;53653;52.188;8.602;2023-03-12T01:46:50;-1.72;87.93
66740;DHT22;53653;52.188;8.602;2023-03-12T01:49:25;-1.69;87.76
66740;DHT22;53653;52.188;8.602;2023-03-12T01:54:25;-1.62;87.29
66740;DHT22;53653;52.188;8.602;2023-03-12T01:56:53;-1.65;87.17
66740;DHT22;53653;52.188;8.602;2023-03-12T01:59:23;-1.62;87.14
66740;DHT22;53653;52.188;8.602;2023-03-12T02:01:49;-1.65;87.12
66740;DHT22;53653;52.188;8.602;2023-03-12T02:04:18;-1.69;87.42
66740;DHT22;53653;52.188;8.602;2023-03-12T02:06:49;-1.66;87.40
66740;DHT22;53653;52.188;8.602;2023-03-12T02:09:18;-1.65;87.34
66740;DHT22;53653;52.188;8.602;2023-03-12T02:11:46;-1.68;87.52
66740;DHT22;53653;52.188;8.602;2023-03-12T02:14:12;-1.66;87.31
66740;DHT22;53653;52.188;8.602;2023-03-12T02:16:37;-1.61;87.19
66740;DHT22;53653;52.188;8.602;2023-03-12T02:19:11;-1.59;86.89
66740;DHT22;53653;52.188;8.602;2023-03-12T02:21:39;-1.55;86.86
66740;DHT22;53653;52.188;8.602;2023-03-12T02:24:32;-1.55;86.77
66740;DHT22;53653;52.188;8.602;2023-03-12T02:26:59;-1.54;86.85
66740;DHT22;53653;52.188;8.602;2023-03-12T02:29:27;-1.55;86.57
66740;DHT22;53653;52.188;8.602;2023-03-12T02:31:55;-1.54;86.57
66740;DHT22;53653;52.188;8.602;2023-03-12T02:34:23;-1.52;86.43
66740;DHT22;53653;52.188;8.602;2023-03-12T02:36:49;-1.50;86.48
66740;DHT22;53653;52.188;8.602;2023-03-12T02:39:14;-1.54;86.45
66740;DHT22;53653;52.188;8.602;2023-03-12T02:41:45;-1.51;86.48
66740;DHT22;53653;52.188;8.602;2023-03-12T02:44:16;-1.50;86.51
66740;DHT22;53653;52.188;8.602;2023-03-12T02:46:49;-1.47;86.38
66740;DHT22;53653;52.188;8.602;2023-03-12T02:49:16;-1.47;86.36
66740;DHT22;53653;52.188;8.602;2023-03-12T02:51:42;-1.42;86.23
66740;DHT22;53653;52.188;8.602;2023-03-12T02:54:09;-1.41;86.20
66740;DHT22;53653;52.188;8.602;2023-03-12T02:56:36;-1.42;86.19
66740;DHT22;53653;52.188;8.602;2023-03-12T02:59:02;-1.45;86.14
66740;DHT22;53653;52.188;8.602;2023-03-12T03:01:28;-1.45;86.14
66740;DHT22;53653;52.188;8.602;2023-03-12T03:03:54;-1.44;86.30
66740;DHT22;53653;52.188;8.602;2023-03-12T03:06:21;-1.44;86.12
66740;DHT22;53653;52.188;8.602;2023-03-12T03:08:46;-1.41;86.20
66740;DHT22;53653;52.188;8.602;2023-03-12T03:11:12;-1.41;85.99
66740;DHT22;53653;52.188;8.602;2023-03-12T03:13:38;-1.44;85.96
66740;DHT22;53653;52.188;8.602;2023-03-12T03:16:04;-1.40;85.98
66740;DHT22;53653;52.188;8.602;2023-03-12T03:18:30;-1.40;86.18
66740;DHT22;53653;52.188;8.602;2023-03-12T03:21:00;-1.38;85.95
66740;DHT22;53653;52.188;8.602;2023-03-12T03:23:27;-1.35;86.01
66740;DHT22;53653;52.188;8.602;2023-03-12T03:25:52;-1.35;85.89
66740;DHT22;53653;52.188;8.602;2023-03-12T03:28:22;-1.35;85.90
66740;DHT22;53653;52.188;8.602;2023-03-12T03:30:48;-1.34;85.92
66740;DHT22;53653;52.188;8.602;2023-03-12T03:33:14;-1.32;85.89
66740;DHT22;53653;52.188;8.602;2023-03-12T03:35:39;-1.30;85.78
66740;DHT22;53653;52.188;8.602;2023-03-12T03:38:05;-1.25;85.75
66740;DHT22;53653;52.188;8.602;2023-03-12T03:40:32;-1.27;85.66
66740;DHT22;53653;52.188;8.602;2023-03-12T03:42:57;-1.24;85.72
66740;DHT22;53653;52.188;8.602;2023-03-12T03:45:23;-1.23;85.78
66740;DHT22;53653;52.188;8.602;2023-03-12T03:47:48;-1.21;85.68
66740;DHT22;53653;52.188;8.602;2023-03-12T03:50:14;-1.23;85.85
66740;DHT22;53653;52.188;8.602;2023-03-12T03:52:41;-1.23;85.88
66740;DHT22;53653;52.188;8.602;2023-03-12T03:55:08;-1.24;85.93
66740;DHT22;53653;52.188;8.602;2023-03-12T03:57:34;-1.23;85.90
66740;DHT22;53653;52.188;8.602;2023-03-12T04:00:00;-1.21;85.89
66740;DHT22;53653;52.188;8.602;2023-03-12T04:02:27;-1.20;85.93
66740;DHT22;53653;52.188;8.602;2023-03-12T04:04:56;-1.23;85.91
66740;DHT22;53653;52.188;8.602;2023-03-12T04:07:25;-1.23;85.97
66740;DHT22;53653;52.188;8.602;2023-03-12T04:09:50;-1.23;85.98
66740;DHT22;53653;52.188;8.602;2023-03-12T04:12:16;-1.21;85.89
66740;DHT22;53653;52.188;8.602;2023-03-12T04:14:42;-1.23;85.97
66740;DHT22;53653;52.188;8.602;2023-03-12T04:17:08;-1.21;85.92
66740;DHT22;53653;52.188;8.602;2023-03-12T04:19:34;-1.23;85.86
66740;DHT22;53653;52.188;8.602;2023-03-12T04:22:01;-1.23;85.82
66740;DHT22;53653;52.188;8.602;2023-03-12T04:24:26;-1.23;85.82
66740;DHT22;53653;52.188;8.602;2023-03-12T04:26:52;-1.25;85.80
66740;DHT22;53653;52.188;8.602;2023-03-12T04:29:18;-1.25;85.86
66740;DHT22;53653;52.188;8.602;2023-03-12T04:31:44;-1.25;85.75
66740;DHT22;53653;52.188;8.602;2023-03-12T04:34:11;-1.23;85.68
66740;DHT22;53653;52.188;8.602;2023-03-12T04:36:36;-1.21;85.40
66740;DHT22;53653;52.188;8.602;2023-03-12T04:39:02;-1.18;85.48
66740;DHT22;53653;52.188;8.602;2023-03-12T04:41:33;-1.15;85.16
66740;DHT22;53653;52.188;8.602;2023-03-12T04:44:12;-1.17;85.41
66740;DHT22;53653;52.188;8.602;2023-03-12T04:46:39;-1.14;85.49
66740;DHT22;53653;52.188;8.602;2023-03-12T04:49:05;-1.13;85.32
66740;DHT22;53653;52.188;8.602;2023-03-12T04:51:33;-1.11;85.18
66740;DHT22;53653;52.188;8.602;2023-03-12T04:54:00;-1.11;85.01
66740;DHT22;53653;52.188;8.602;2023-03-12T04:56:26;-1.05;84.75
66740;DHT22;53653;52.188;8.602;2023-03-12T04:58:52;-1.01;84.68
66740;DHT22;53653;52.188;8.602;2023-03-12T05:01:29;-0.97;84.31
66740;DHT22;53653;52.188;8.602;2023-03-12T05:03:55;-0.94;84.24
66740;DHT22;53653;52.188;8.602;2023-03-12T05:06:22;-0.92;84.35
66740;DHT22;53653;52.188;8.602;2023-03-12T05:08:48;-0.87;84.02
66740;DHT22;53653;52.188;8.602;2023-03-12T05:11:14;-0.89;83.93
66740;DHT22;53653;52.188;8.602;2023-03-12T05:13:40;-0.89;84.13
66740;DHT22;53653;52.188;8.602;2023-03-12T05:16:06;-0.87;84.16
66740;DHT22;53653;52.188;8.602;2023-03-12T05:18:32;-0.86;84.07
66740;DHT22;53653;52.188;8.602;2023-03-12T08:28:01;1.72;76.09
66740;DHT22;53653;52.188;8.602;2023-03-12T08:30:29;1.79;76.10
66740;DHT22;53653;52.188;8.602;2023-03-12T08:32:54;1.91;75.70
66740;DHT22;53653;52.188;8.602;2023-03-12T08:35:20;1.92;75.52
66740;DHT22;53653;52.188;8.602;2023-03-12T08:37:46;1.94;75.81
66740;DHT22;53653;52.188;8.602;2023-03-12T08:40:11;2.01;75.58
66740;DHT22;53653;52.188;8.602;2023-03-12T08:42:39;2.08;75.35
66740;DHT22;53653;52.188;8.602;2023-03-12T08:45:05;2.18;74.64
66740;DHT22;53653;52.188;8.602;2023-03-12T08:47:31;2.30;74.69
66740;DHT22;53653;52.188;8.602;2023-03-12T08:49:56;2.36;75.47
66740;DHT22;53653;52.188;8.602;2023-03-12T08:52:22;2.37;73.87
66740;DHT22;53653;52.188;8.602;2023-03-12T08:54:48;2.39;74.33
66740;DHT22;53653;52.188;8.602;2023-03-12T08:57:14;2.43;74.67
66740;DHT22;53653;52.188;8.602;2023-03-12T08:59:40;2.47;74.40
66740;DHT22;53653;52.188;8.602;2023-03-12T09:02:06;2.53;73.80
66740;DHT22;53653;52.188;8.602;2023-03-12T09:04:32;2.50;73.46
66740;DHT22;53653;52.188;8.602;2023-03-12T09:06:59;2.54;73.92
66740;DHT22;53653;52.188;8.602;2023-03-12T09:09:25;2.58;74.09
66740;DHT22;53653;52.188;8.602;2023-03-12T09:11:51;2.65;74.71
66740;DHT22;53653;52.188;8.602;2023-03-12T09:14:16;2.58;74.86
66740;DHT22;53653;52.188;8.602;2023-03-12T09:16:42;2.57;77.16
66740;DHT22;53653;52.188;8.602;2023-03-12T09:19:08;2.43;77.74
66740;DHT22;53653;52.188;8.602;2023-03-12T09:21:33;2.37;77.77
66740;DHT22;53653;52.188;8.602;2023-03-12T09:23:59;2.25;78.99
66740;DHT22;53653;52.188;8.602;2023-03-12T09:26:24;2.29;79.04
66740;DHT22;53653;52.188;8.602;2023-03-12T09:28:50;2.25;79.74
66740;DHT22;53653;52.188;8.602;2023-03-12T09:31:16;2.26;80.54
66740;DHT22;53653;52.188;8.602;2023-03-12T09:33:42;2.32;80.05
66740;DHT22;53653;52.188;8.602;2023-03-12T09:36:07;2.33;80.44
66740;DHT22;53653;52.188;8.602;2023-03-12T09:38:33;2.36;79.42
66740;DHT22;53653;52.188;8.602;2023-03-12T09:41:00;2.36;80.12
66740;DHT22;53653;52.188;8.602;2023-03-12T09:43:41;2.36;81.26
66740;DHT22;53653;52.188;8.602;2023-03-12T09:46:34;2.33;81.91
66740;DHT22;53653;52.188;8.602;2023-03-12T09:49:05;2.28;82.50
66740;DHT22;53653;52.188;8.602;2023-03-12T09:51:40;2.32;83.32
66740;DHT22;53653;52.188;8.602;2023-03-12T09:54:21;2.32;84.01
66740;DHT22;53653;52.188;8.602;2023-03-12T09:56:50;2.22;85.39
66740;DHT22;53653;52.188;8.602;2023-03-12T09:59:16;2.06;85.48
66740;DHT22;53653;52.188;8.602;2023-03-12T10:01:52;1.98;86.52
66740;DHT22;53653;52.188;8.602;2023-03-12T10:04:23;2.06;87.29
66740;DHT22;53653;52.188;8.602;2023-03-12T10:07:14;2.09;87.62
66740;DHT22;53653;52.188;8.602;2023-03-12T10:15:21;2.20;87.64
66740;DHT22;53653;52.188;8.602;2023-03-12T10:18:11;2.23;88.00
66740;DHT22;53653;52.188;8.602;2023-03-12T10:20:50;2.44;88.51
66740;DHT22;53653;52.188;8.602;2023-03-12T10:23:33;2.51;87.99
66740;DHT22;53653;52.188;8.602;2023-03-12T10:26:10;2.34;88.54
66740;DHT22;53653;52.188;8.602;2023-03-12T10:28:43;2.32;88.81
66740;DHT22;53653;52.188;8.602;2023-03-12T10:31:21;2.34;89.51
66740;DHT22;53653;52.188;8.602;2023-03-12T10:33:54;2.44;89.76
66740;DHT22;53653;52.188;8.602;2023-03-12T10:36:24;2.33;89.19
66740;DHT22;53653;52.188;8.602;2023-03-12T10:38:50;2.20;89.83
66740;DHT22;53653;52.188;8.602;2023-03-12T10:41:24;2.22;90.02
66740;DHT22;53653;52.188;8.602;2023-03-12T10:43:50;2.32;89.31
66740;DHT22;53653;52.188;8.602;2023-03-12T10:46:34;2.30;89.81
66740;DHT22;53653;52.188;8.602;2023-03-12T10:49:27;2.37;89.78
66740;DHT22;53653;52.188;8.602;2023-03-12T10:52:03;2.29;90.77
66740;DHT22;53653;52.188;8.602;2023-03-12T10:54:37;2.22;91.32
66740;DHT22;53653;52.188;8.602;2023-03-12T10:57:05;2.19;91.80
66740;DHT22;53653;52.188;8.602;2023-03-12T10:59:37;2.09;92.09
66740;DHT22;53653;52.188;8.602;2023-03-12T11:04:54;2.20;92.99
66740;DHT22;53653;52.188;8.602;2023-03-12T11:07:33;2.18;92.87
66740;DHT22;53653;52.188;8.602;2023-03-12T11:12:31;2.19;93.81
66740;DHT22;53653;52.188;8.602;2023-03-12T11:14:59;2.18;93.57
66740;DHT22;53653;52.188;8.602;2023-03-12T11:17:27;2.20;93.55
66740;DHT22;53653;52.188;8.602;2023-03-12T11:19:53;2.16;93.82
66740;DHT22;53653;52.188;8.602;2023-03-12T11:22:29;2.12;94.16
66740;DHT22;53653;52.188;8.602;2023-03-12T11:24:58;2.10;94.78
66740;DHT22;53653;52.188;8.602;2023-03-12T11:27:46;2.06;94.86
66740;DHT22;53653;52.188;8.602;2023-03-12T11:30:22;2.12;95.23
66740;DHT22;53653;52.188;8.602;2023-03-12T11:32:49;2.19;95.17
66740;DHT22;53653;52.188;8.602;2023-03-12T11:35:18;2.26;95.26
66740;DHT22;53653;52.188;8.602;2023-03-12T11:37:54;2.41;94.50
66740;DHT22;53653;52.188;8.602;2023-03-12T11:43:41;2.53;93.35
66740;DHT22;53653;52.188;8.602;2023-03-12T11:46:22;2.60;93.30
66740;DHT22;53653;52.188;8.602;2023-03-12T11:56:46;2.60;94.11
66740;DHT22;53653;52.188;8.602;2023-03-12T12:05:17;2.64;94.85
66740;DHT22;53653;52.188;8.602;2023-03-12T12:13:23;2.84;95.06
66740;DHT22;53653;52.188;8.602;2023-03-12T12:18:44;2.97;95.15
66740;DHT22;53653;52.188;8.602;2023-03-12T12:21:22;3.11;94.72
66740;DHT22;53653;52.188;8.602;2023-03-12T12:26:37;3.26;94.55
66740;DHT22;53653;52.188;8.602;2023-03-12T12:31:58;3.53;93.68
66740;DHT22;53653;52.188;8.602;2023-03-12T12:34:33;3.63;93.45
66740;DHT22;53653;52.188;8.602;2023-03-12T12:39:51;3.63;94.00
66740;DHT22;53653;52.188;8.602;2023-03-12T12:42:23;3.64;94.10
66740;DHT22;53653;52.188;8.602;2023-03-12T12:44:52;3.66;94.04
66740;DHT22;53653;52.188;8.602;2023-03-12T12:47:31;3.77;93.91
66740;DHT22;53653;52.188;8.602;2023-03-12T12:49:57;3.90;93.57
66740;DHT22;53653;52.188;8.602;2023-03-12T12:52:25;3.84;93.89
66740;DHT22;53653;52.188;8.602;2023-03-12T12:54:59;3.78;94.15
66740;DHT22;53653;52.188;8.602;2023-03-12T12:57:40;3.80;94.49
66740;DHT22;53653;52.188;8.602;2023-03-12T13:02:32;3.81;94.66
66740;DHT22;53653;52.188;8.602;2023-03-12T13:04:59;3.78;94.77
66740;DHT22;53653;52.188;8.602;2023-03-12T13:10:36;3.83;95.29
66740;DHT22;53653;52.188;8.602;2023-03-12T13:12:55;3.84;95.31
66740;DHT22;53653;52.188;8.602;2023-03-12T13:29:17;4.33;95.16
66740;DHT22;53653;52.188;8.602;2023-03-12T13:31:44;4.49;94.82
66740;DHT22;53653;52.188;8.602;2023-03-12T13:36:43;4.80;94.30
66740;DHT22;53653;52.188;8.602;2023-03-12T13:44:37;5.00;94.40
66740;DHT22;53653;52.188;8.602;2023-03-12T13:47:25;5.11;94.28
66740;DHT22;53653;52.188;8.602;2023-03-12T13:50:03;5.21;93.97
66740;DHT22;53653;52.188;8.602;2023-03-12T13:55:24;5.35;93.89
66740;DHT22;53653;52.188;8.602;2023-03-12T14:02:58;5.43;94.31
66740;DHT22;53653;52.188;8.602;2023-03-12T14:05:26;5.49;94.34
66740;DHT22;53653;52.188;8.602;2023-03-12T14:15:43;5.65;94.67
66740;DHT22;53653;52.188;8.602;2023-03-12T14:18:23;5.74;94.63
66740;DHT22;53653;52.188;8.602;2023-03-12T14:20:58;5.73;94.70
66740;DHT22;53653;52.188;8.602;2023-03-12T14:23:28;5.90;94.53
66740;DHT22;53653;52.188;8.602;2023-03-12T14:25:59;5.93;94.56
66740;DHT22;53653;52.188;8.602;2023-03-12T14:28:26;5.99;94.56
66740;DHT22;53653;52.188;8.602;2023-03-12T14:31:05;6.10;94.71
66740;DHT22;53653;52.188;8.602;2023-03-12T14:33:34;6.13;94.84
66740;DHT22;53653;52.188;8.602;2023-03-12T14:36:08;6.22;94.77
66740;DHT22;53653;52.188;8.602;2023-03-12T14:38:43;6.31;94.92
66740;DHT22;53653;52.188;8.602;2023-03-12T14:41:14;6.44;94.90
66740;DHT22;53653;52.188;8.602;2023-03-12T14:43:42;6.48;94.78
66740;DHT22;53653;52.188;8.602;2023-03-12T14:46:21;6.56;94.74
66740;DHT22;53653;52.188;8.602;2023-03-12T14:48:49;6.71;94.82
66740;DHT22;53653;52.188;8.602;2023-03-12T14:51:23;6.72;95.03
66740;DHT22;53653;52.188;8.602;2023-03-12T16:21:39;8.54;93.18
66740;DHT22;53653;52.188;8.602;2023-03-12T16:24:05;8.55;93.04
66740;DHT22;53653;52.188;8.602;2023-03-12T16:26:33;8.61;92.91
66740;DHT22;53653;52.188;8.602;2023-03-12T16:28:59;8.64;92.72
66740;DHT22;53653;52.188;8.602;2023-03-12T16:31:24;8.61;92.61
66740;DHT22;53653;52.188;8.602;2023-03-12T16:33:50;8.64;92.70
66740;DHT22;53653;52.188;8.602;2023-03-12T16:36:16;8.64;92.44
66740;DHT22;53653;52.188;8.602;2023-03-12T16:38:44;8.64;92.30
66740;DHT22;53653;52.188;8.602;2023-03-12T16:41:16;8.69;92.07
66740;DHT22;53653;52.188;8.602;2023-03-12T16:43:45;8.67;91.91
66740;DHT22;53653;52.188;8.602;2023-03-12T16:46:15;8.69;91.78
66740;DHT22;53653;52.188;8.602;2023-03-12T16:48:43;8.72;91.69
66740;DHT22;53653;52.188;8.602;2023-03-12T16:51:13;8.69;91.56
66740;DHT22;53653;52.188;8.602;2023-03-12T16:53:39;8.79;91.45
66740;DHT22;53653;52.188;8.602;2023-03-12T16:56:05;8.81;91.33
66740;DHT22;53653;52.188;8.602;2023-03-12T16:58:31;8.82;90.98
66740;DHT22;53653;52.188;8.602;2023-03-12T17:00:57;8.81;90.79
66740;DHT22;53653;52.188;8.602;2023-03-12T17:03:31;8.82;90.70
66740;DHT22;53653;52.188;8.602;2023-03-12T17:05:57;8.84;90.67
66740;DHT22;53653;52.188;8.602;2023-03-12T17:08:22;8.82;90.46
66740;DHT22;53653;52.188;8.602;2023-03-12T17:10:48;8.84;90.38
66740;DHT22;53653;52.188;8.602;2023-03-12T17:13:18;8.84;90.23
66740;DHT22;53653;52.188;8.602;2023-03-12T17:15:44;8.84;90.06
66740;DHT22;53653;52.188;8.602;2023-03-12T17:18:11;8.81;89.98
66740;DHT22;53653;52.188;8.602;2023-03-12T17:20:37;8.75;89.92
66740;DHT22;53653;52.188;8.602;2023-03-12T17:23:03;8.75;89.93
66740;DHT22;53653;52.188;8.602;2023-03-12T17:25:32;8.82;89.70
66740;DHT22;53653;52.188;8.602;2023-03-12T17:27:59;8.78;89.52
66740;DHT22;53653;52.188;8.602;2023-03-12T17:30:26;8.76;89.46
66740;DHT22;53653;52.188;8.602;2023-03-12T17:32:52;8.75;89.40
66740;DHT22;53653;52.188;8.602;2023-03-12T17:35:18;8.74;89.41
66740;DHT22;53653;52.188;8.602;2023-03-12T17:37:44;8.79;89.19
66740;DHT22;53653;52.188;8.602;2023-03-12T17:40:13;8.78;89.08
66740;DHT22;53653;52.188;8.602;2023-03-12T17:42:39;8.75;89.03
66740;DHT22;53653;52.188;8.602;2023-03-12T17:45:05;8.69;89.07
66740;DHT22;53653;52.188;8.602;2023-03-12T17:47:31;8.67;89.09
66740;DHT22;53653;52.188;8.602;2023-03-12T17:49:57;8.71;88.86
66740;DHT22;53653;52.188;8.602;2023-03-12T17:52:23;8.71;88.76
66740;DHT22;53653;52.188;8.602;2023-03-12T17:54:48;8.67;88.78
66740;DHT22;53653;52.188;8.602;2023-03-12T17:57:14;8.69;88.76
66740;DHT22;53653;52.188;8.602;2023-03-12T17:59:39;8.68;88.79
66740;DHT22;53653;52.188;8.602;2023-03-12T18:02:05;8.67;88.77
66740;DHT22;53653;52.188;8.602;2023-03-12T18:04:31;8.68;88.85
66740;DHT22;53653;52.188;8.602;2023-03-12T18:06:57;8.67;88.87
66740;DHT22;53653;52.188;8.602;2023-03-12T18:09:25;8.67;88.92
66740;DHT22;53653;52.188;8.602;2023-03-12T18:11:50;8.68;88.91
66740;DHT22;53653;52.188;8.602;2023-03-12T18:14:16;8.65;88.97
66740;DHT22;53653;52.188;8.602;2023-03-12T18:16:41;8.71;88.94
66740;DHT22;53653;52.188;8.602;2023-03-12T18:19:07;8.74;88.88
66740;DHT22;53653;52.188;8.602;2023-03-12T18:21:32;8.68;88.94
66740;DHT22;53653;52.188;8.602;2023-03-12T18:23:58;8.68;88.95
66740;DHT22;53653;52.188;8.602;2023-03-12T18:26:23;8.69;88.94
66740;DHT22;53653;52.188;8.602;2023-03-12T18:28:49;8.69;88.92
66740;DHT22;53653;52.188;8.602;2023-03-12T18:31:14;8.64;88.99
66740;DHT22;53653;52.188;8.602;2023-03-12T18:33:40;8.63;89.04
66740;DHT22;53653;52.188;8.602;2023-03-12T18:36:06;8.57;89.26
66740;DHT22;53653;52.188;8.602;2023-03-12T18:38:32;8.55;89.35
66740;DHT22;53653;52.188;8.602;2023-03-12T18:41:08;8.55;89.32
66740;DHT22;53653;52.188;8.602;2023-03-12T18:43:35;8.64;89.15
66740;DHT22;53653;52.188;8.602;2023-03-12T18:46:01;8.60;89.28
66740;DHT22;53653;52.188;8.602;2023-03-12T18:48:27;8.64;89.12
66740;DHT22;53653;52.188;8.602;2023-03-12T18:50:52;8.68;89.06
66740;DHT22;53653;52.188;8.602;2023-03-12T18:53:18;8.68;88.87
66740;DHT22;53653;52.188;8.602;2023-03-12T18:55:51;8.67;88.74
66740;DHT22;53653;52.188;8.602;2023-03-12T18:58:17;8.71;88.68
66740;DHT22;53653;52.188;8.602;2023-03-12T19:00:42;8.68;88.66
66740;DHT22;53653;52.188;8.602;2023-03-12T19:03:07;8.69;88.61
66740;DHT22;53653;52.188;8.602;2023-03-12T19:05:33;8.71;88.49
66740;DHT22;53653;52.188;8.602;2023-03-12T19:07:59;8.72;88.35
66740;DHT22;53653;52.188;8.602;2023-03-12T19:10:24;8.78;88.17
66740;DHT22;53653;52.188;8.602;2023-03-12T19:12:50;8.76;87.88
66740;DHT22;53653;52.188;8.602;2023-03-12T19:15:15;8.82;87.82
66740;DHT22;53653;52.188;8.602;2023-03-12T19:17:41;8.76;87.82
66740;DHT22;53653;52.188;8.602;2023-03-12T19:20:07;8.69;88.00
66740;DHT22;53653;52.188;8.602;2023-03-12T19:22:33;8.65;88.16
66740;DHT22;53653;52.188;8.602;2023-03-12T19:24:59;8.61;88.33
66740;DHT22;53653;52.188;8.602;2023-03-12T19:27:24;8.57;88.53
66740;DHT22;53653;52.188;8.602;2023-03-12T19:29:50;8.61;88.43
66740;DHT22;53653;52.188;8.602;2023-03-12T19:32:15;8.61;88.60
66740;DHT22;53653;52.188;8.602;2023-03-12T19:34:40;8.61;88.63
66740;DHT22;53653;52.188;8.602;2023-03-12T19:37:06;8.64;88.59
66740;DHT22;53653;52.188;8.602;2023-03-12T19:39:31;8.72;88.48
66740;DHT22;53653;52.188;8.602;2023-03-12T19:41:57;8.76;88.36
66740;DHT22;53653;52.188;8.602;2023-03-12T19:44:24;8.78;88.36
66740;DHT22;53653;52.188;8.602;2023-03-12T19:46:49;8.74;88.52
66740;DHT22;53653;52.188;8.602;2023-03-12T19:49:15;8.64;88.86
66740;DHT22;53653;52.188;8.602;2023-03-12T19:51:40;8.68;88.83
66740;DHT22;53653;52.188;8.602;2023-03-12T19:54:06;8.75;88.78
66740;DHT22;53653;52.188;8.602;2023-03-12T19:56:32;8.78;88.67
66740;DHT22;53653;52.188;8.602;2023-03-12T19:58:57;8.81;88.52
66740;DHT22;53653;52.188;8.602;2023-03-12T20:01:23;8.84;88.49
66740;DHT22;53653;52.188;8.602;2023-03-12T20:03:49;8.82;88.58
66740;DHT22;53653;52.188;8.602;2023-03-12T20:06:14;8.84;88.52
66740;DHT22;53653;52.188;8.602;2023-03-12T20:08:39;8.82;88.56
66740;DHT22;53653;52.188;8.602;2023-03-12T20:11:09;8.79;88.67
66740;DHT22;53653;52.188;8.602;2023-03-12T20:13:35;8.76;88.71
66740;DHT22;53653;52.188;8.602;2023-03-12T20:16:03;8.84;88.76
66740;DHT22;53653;52.188;8.602;2023-03-12T20:18:29;8.91;88.37
66740;DHT22;53653;52.188;8.602;2023-03-12T20:20:55;8.91;88.03
66740;DHT22;53653;52.188;8.602;2023-03-12T20:23:20;8.91;87.86
66740;DHT22;53653;52.188;8.602;2023-03-12T20:25:47;8.92;87.71
66740;DHT22;53653;52.188;8.602;2023-03-12T20:28:14;8.95;87.46
66740;DHT22;53653;52.188;8.602;2023-03-12T20:30:40;9.01;87.03
66740;DHT22;53653;52.188;8.602;2023-03-12T20:33:06;9.02;86.69
66740;DHT22;53653;52.188;8.602;2023-03-12T20:35:35;9.01;86.44
66740;DHT22;53653;52.188;8.602;2023-03-12T20:38:00;9.01;86.22
66740;DHT22;53653;52.188;8.602;2023-03-12T20:40:26;8.98;85.95
66740;DHT22;53653;52.188;8.602;2023-03-12T20:42:52;9.03;85.62
66740;DHT22;53653;52.188;8.602;2023-03-12T20:45:17;9.05;85.52
66740;DHT22;53653;52.188;8.602;2023-03-12T20:47:43;9.03;85.27
66740;DHT22;53653;52.188;8.602;2023-03-12T20:50:09;9.05;84.86
66740;DHT22;53653;52.188;8.602;2023-03-12T20:52:34;9.11;84.57
66740;DHT22;53653;52.188;8.602;2023-03-12T20:55:00;9.19;84.10
66740;DHT22;53653;52.188;8.602;2023-03-12T20:57:26;9.16;83.84
66740;DHT22;53653;52.188;8.602;2023-03-12T20:59:51;9.22;83.83
66740;DHT22;53653;52.188;8.602;2023-03-12T21:02:17;9.23;83.60
66740;DHT22;53653;52.188;8.602;2023-03-12T21:04:42;9.20;83.58
66740;DHT22;53653;52.188;8.602;2023-03-12T21:07:08;9.23;83.28
66740;DHT22;53653;52.188;8.602;2023-03-12T21:09:34;9.20;83.38
66740;DHT22;53653;52.188;8.602;2023-03-12T21:11:59;9.29;82.99
66740;DHT22;53653;52.188;8.602;2023-03-12T21:14:25;9.34;82.75
66740;DHT22;53653;52.188;8.602;2023-03-12T21:16:50;9.36;82.61
66740;DHT22;53653;52.188;8.602;2023-03-12T21:19:16;9.30;82.74
66740;DHT22;53653;52.188;8.602;2023-03-12T21:21:41;9.26;82.76
66740;DHT22;53653;52.188;8.602;2023-03-12T21:24:07;9.22;83.02
66740;DHT22;53653;52.188;8.602;2023-03-12T21:26:32;9.32;82.70
66740;DHT22;53653;52.188;8.602;2023-03-12T21:28:58;9.27;82.53
66740;DHT22;53653;52.188;8.602;2023-03-12T21:31:23;9.32;82.41
66740;DHT22;53653;52.188;8.602;2023-03-12T21:33:57;9.23;82.78
66740;DHT22;53653;52.188;8.602;2023-03-12T21:36:23;9.23;82.58
66740;DHT22;53653;52.188;8.602;2023-03-12T21:38:49;9.26;82.63
66740;DHT22;53653;52.188;8.602;2023-03-12T21:41:16;9.30;82.30
66740;DHT22;53653;52.188;8.602;2023-03-12T21:43:44;9.29;82.34
66740;DHT22;53653;52.188;8.602;2023-03-12T21:46:16;9.32;82.26
66740;DHT22;53653;52.188;8.602;2023-03-12T21:48:44;9.39;82.14
66740;DHT22;53653;52.188;8.602;2023-03-12T21:51:11;9.37;82.19